Temple, GA (30179)

6:08 PM EDT on August 27, 2016 (GMT -0400)
Rainey Rd. | | Change Station

Elev 1263 ft 33.79 °N, 85.01 °W | Updated 9 minutes ago

Haze
Haze
95.5 °F
Feels Like 104 °F
N
4.7
Wind Variable Wind from SW

Today
High -- | Low -- °F
--% Chance of Precip.
Yesterday
High -- | Low -- °F
Precip. -- in
Pressure 30.06 in
Visibility 4.0 miles
Clouds Scattered Clouds 5000 ft
Scattered Clouds 6500 ft
Heat Index 104 °F
Dew Point 71 °F
Humidity 46%
Rainfall 0.00 in
Snow Depth Not available.
7:10 AM 8:11 PM
Waning Crescent, 21% visible
METAR KPUJ 272155Z AUTO 11011KT 4SM HZ SCT050 SCT065 36/22 A3006 RMK AO2
Pressure 30.06 in
Visibility 4.0 miles
Clouds Scattered Clouds 5000 ft
Scattered Clouds 6500 ft
Heat Index 104 °F
Dew Point 71 °F
Humidity 46%
Rainfall 0.00 in
Snow Depth Not available.
7:10 AM 8:11 PM
Waning Crescent, 21% visible
METAR KPUJ 272155Z AUTO 11011KT 4SM HZ SCT050 SCT065 36/22 A3006 RMK AO2

10-Day Weather Forecast

Almanac

Astronomy

Aug. 27, 2016 Rise Set
Actual Time
Civil Twilight
Nautical Twilight
Astronomical Twilight
Moon
Length of Visible Light
Length of Day
Tomorrow will be .
, % of the Moon is Illuminated

Today's Extremes

State Highs State Lows

Community

WunderPhotos

Upload Photos

1,935,455 photos uploaded!

WunderBlog® & News

Nearby

Air Quality

  Air Quality AQ Index Pollutant
Not available.

Snow Depth

Station Depth Elevation

Earthquake Activity

City Distance Mag. Time & Date
Minimum magnitude displayed is 2.5.

Coastal Water Temperatures

Place Temperature

Stations

Nearby Weather Stations

Station Location Temp. Windchill Dew Point Humidity Wind Precip. Elev Updated Type
                   

Watches & Warnings

There are currently no watches in effect.